createdAt,value
2023-05-02T00:01:58.233Z,97616.63
2023-05-02T00:04:25.963Z,97620.84
2023-05-02T00:06:53.753Z,97621.91
2023-05-02T00:09:21.929Z,97624.78
2023-05-02T00:11:49.520Z,97632.56
2023-05-02T00:14:16.915Z,97623.50
2023-05-02T00:16:44.329Z,97628.94
2023-05-02T00:19:12.488Z,97631.28
2023-05-02T00:21:40.000Z,97628.03
2023-05-02T00:24:07.571Z,97627.34
2023-05-02T00:26:34.977Z,97628.19
2023-05-02T00:29:02.584Z,97634.06
2023-05-02T00:31:30.073Z,97630.38
2023-05-02T00:33:57.561Z,97631.34
2023-05-02T00:36:25.184Z,97631.34
2023-05-02T00:38:52.630Z,97634.47
2023-05-02T00:41:20.105Z,97627.03
2023-05-02T00:43:47.646Z,97634.13
2023-05-02T00:46:15.562Z,97627.97
2023-05-02T00:48:44.105Z,97627.97
2023-05-02T00:51:13.533Z,97626.09
2023-05-02T00:53:41.630Z,97622.88
2023-05-02T00:56:10.071Z,97632.63
2023-05-02T00:58:41.103Z,97627.59
2023-05-02T01:01:27.249Z,97631.34
2023-05-02T01:04:02.505Z,97629.00
2023-05-02T01:06:42.495Z,97626.00
2023-05-02T01:09:47.853Z,97625.53
2023-05-02T01:12:18.115Z,97625.38
2023-05-02T01:14:50.934Z,97634.19
2023-05-02T01:17:21.491Z,97636.38
2023-05-02T01:19:55.126Z,97636.97
2023-05-02T01:22:24.851Z,97638.94
2023-05-02T01:25:06.505Z,97632.31
2023-05-02T01:27:51.741Z,97639.53
2023-05-02T01:30:21.568Z,97637.91
2023-05-02T01:32:52.559Z,97638.03
2023-05-02T01:35:22.616Z,97650.19
2023-05-02T01:37:52.908Z,97637.91
2023-05-02T01:40:22.839Z,97647.31
2023-05-02T01:42:52.136Z,97644.38
2023-05-02T01:45:22.017Z,97645.78
2023-05-02T01:47:51.622Z,97639.53
2023-05-02T01:50:23.425Z,97640.81
2023-05-02T01:52:56.285Z,97632.31
2023-05-02T01:55:25.970Z,97636.75
2023-05-02T01:57:55.841Z,97638.13
2023-05-02T02:00:25.856Z,97637.47
2023-05-02T02:02:56.245Z,97638.97
2023-05-02T02:05:25.180Z,97635.31
2023-05-02T02:07:52.753Z,97636.94
2023-05-02T02:10:20.647Z,97634.25
2023-05-02T02:12:58.940Z,97634.59
2023-05-02T02:15:29.202Z,97625.88
2023-05-02T02:18:12.175Z,97635.84
2023-05-02T02:20:44.029Z,97636.56
2023-05-02T02:23:14.845Z,97633.31
2023-05-02T02:25:45.007Z,97636.78
2023-05-02T02:28:12.947Z,97635.03
2023-05-02T02:30:40.443Z,97636.03
2023-05-02T02:33:08.056Z,97640.09
2023-05-02T02:35:42.491Z,97635.78
2023-05-02T02:38:49.074Z,97644.28
2023-05-02T02:41:22.522Z,97635.78
2023-05-02T02:44:02.247Z,97646.94
2023-05-02T02:46:51.221Z,97651.47
2023-05-02T02:49:32.102Z,97650.19
2023-05-02T02:52:29.393Z,97648.34
2023-05-02T02:55:07.858Z,97650.44
2023-05-02T02:57:46.199Z,97657.16
2023-05-02T03:00:20.671Z,97662.97
2023-05-02T03:02:48.958Z,97667.16
2023-05-02T03:05:17.720Z,97669.63
2023-05-02T03:07:45.391Z,97669.13
2023-05-02T03:10:12.888Z,97671.44
2023-05-02T03:12:41.498Z,97683.28
2023-05-02T03:15:34.295Z,97681.31
2023-05-02T03:18:01.987Z,97679.81
2023-05-02T03:20:29.835Z,97690.25
2023-05-02T03:22:57.457Z,97688.97
2023-05-02T03:25:24.934Z,97693.53
2023-05-02T03:27:53.326Z,97699.09
2023-05-02T03:30:20.788Z,97697.22
2023-05-02T03:32:48.392Z,97698.06
2023-05-02T03:35:16.964Z,97708.28
2023-05-02T03:37:46.750Z,97713.38
2023-05-02T03:40:14.991Z,97717.44
2023-05-02T03:42:42.656Z,97720.81
2023-05-02T03:45:22.091Z,97721.84
2023-05-02T03:47:51.636Z,97716.03
2023-05-02T03:50:19.409Z,97721.28
2023-05-02T03:52:49.242Z,97718.63
2023-05-02T03:55:21.710Z,97725.00
2023-05-02T03:57:49.878Z,97730.31
2023-05-02T04:00:17.964Z,97730.56
2023-05-02T04:02:52.839Z,97736.13
2023-05-02T04:05:23.869Z,97743.66
2023-05-02T04:07:51.520Z,97751.34
2023-05-02T04:10:19.193Z,97747.75
2023-05-02T04:12:53.353Z,97746.00
2023-05-02T04:15:21.594Z,97744.84
2023-05-02T04:17:51.463Z,97759.47
2023-05-02T04:20:20.389Z,97761.31
2023-05-02T04:22:51.705Z,97772.56
2023-05-02T04:25:19.324Z,97780.56
2023-05-02T04:27:47.574Z,97771.06
2023-05-02T04:30:18.499Z,97779.53
2023-05-02T04:32:55.067Z,97783.34
2023-05-02T04:35:23.661Z,97790.69
2023-05-02T04:37:51.259Z,97807.72
2023-05-02T04:40:18.971Z,97809.91
2023-05-02T04:42:49.819Z,97805.84
2023-05-02T04:45:20.959Z,97808.31
2023-05-02T04:47:49.372Z,97808.50
2023-05-02T04:50:16.781Z,97805.03
2023-05-02T04:52:44.962Z,97816.19
2023-05-02T04:55:13.019Z,97819.06
2023-05-02T04:57:41.283Z,97823.25
2023-05-02T05:00:13.174Z,97826.59
2023-05-02T05:02:40.734Z,97831.44
2023-05-02T05:05:09.863Z,97838.34
2023-05-02T05:07:37.601Z,97839.97
2023-05-02T05:10:05.830Z,97837.84
2023-05-02T05:12:41.273Z,97849.59
2023-05-02T05:15:11.817Z,97852.03
2023-05-02T05:17:42.606Z,97857.13
2023-05-02T05:20:10.412Z,97859.34
2023-05-02T05:22:42.670Z,97845.72
2023-05-02T05:25:12.319Z,97857.00
2023-05-02T05:27:40.593Z,97858.22
2023-05-02T05:30:10.249Z,97861.09
2023-05-02T05:32:38.119Z,97867.13
2023-05-02T05:35:06.590Z,97870.38
2023-05-02T05:37:34.747Z,97868.94
2023-05-02T05:40:03.473Z,97872.75
2023-05-02T05:42:31.194Z,97874.75
2023-05-02T05:45:02.929Z,97874.50
2023-05-02T05:47:30.651Z,97880.66
2023-05-02T05:49:58.864Z,97883.28
2023-05-02T05:52:30.229Z,97889.13
2023-05-02T05:55:00.272Z,97894.72
2023-05-02T05:57:29.338Z,97897.88
2023-05-02T05:59:57.875Z,97903.81
2023-05-02T06:02:26.636Z,97915.72
2023-05-02T06:04:54.119Z,97912.66
2023-05-02T06:07:24.011Z,97916.06
2023-05-02T06:09:51.849Z,97920.34
2023-05-02T06:12:19.328Z,97924.75
2023-05-02T06:14:47.655Z,97921.25
2023-05-02T06:17:15.665Z,97922.41
2023-05-02T06:19:43.209Z,97939.59
2023-05-02T06:22:13.812Z,97925.50
2023-05-02T06:24:41.302Z,97941.56
2023-05-02T06:27:08.777Z,97948.78
2023-05-02T06:29:36.240Z,97950.72
2023-05-02T06:32:04.345Z,97950.56
2023-05-02T06:34:35.048Z,97956.53
2023-05-02T06:37:02.522Z,97956.91
2023-05-02T06:39:30.143Z,97956.88
2023-05-02T06:41:58.615Z,97954.97
2023-05-02T06:44:27.279Z,97962.03
2023-05-02T06:46:56.031Z,97967.38
2023-05-02T06:49:23.783Z,97974.94
2023-05-02T06:51:51.232Z,97978.69
2023-05-02T06:54:18.804Z,97974.06
2023-05-02T06:56:46.307Z,97983.41
2023-05-02T06:59:13.786Z,97993.72
2023-05-02T07:01:41.538Z,97996.06
2023-05-02T07:04:09.170Z,97993.78
2023-05-02T07:06:36.872Z,97998.50
2023-05-02T07:09:04.301Z,97997.72
2023-05-02T07:11:31.849Z,97994.91
2023-05-02T07:13:59.234Z,98008.88
2023-05-02T07:16:26.782Z,98005.97
2023-05-02T07:18:54.307Z,98010.53
2023-05-02T07:21:21.871Z,98017.59
2023-05-02T07:23:49.324Z,98017.31
2023-05-02T07:26:18.950Z,98021.31
2023-05-02T07:28:46.543Z,98029.19
2023-05-02T07:31:14.143Z,98040.53
2023-05-02T07:33:41.628Z,98039.69
2023-05-02T07:36:09.142Z,98043.66
2023-05-02T07:38:36.564Z,98051.47
2023-05-02T07:41:04.020Z,98053.53
2023-05-02T07:43:31.629Z,98058.53
2023-05-02T07:45:59.043Z,98056.53
2023-05-02T07:48:27.895Z,98069.91
2023-05-02T07:50:55.615Z,98071.63
2023-05-02T07:53:23.060Z,98073.38
2023-05-02T07:55:50.476Z,98073.53
2023-05-02T07:58:17.897Z,98079.63
2023-05-02T08:00:45.528Z,98086.78
2023-05-02T08:03:13.022Z,98089.31
2023-05-02T08:05:40.578Z,98090.91
2023-05-02T08:08:08.157Z,98099.03
2023-05-02T08:10:35.539Z,98100.94
2023-05-02T08:13:03.049Z,98105.09
2023-05-02T08:15:30.816Z,98107.06
2023-05-02T08:17:58.312Z,98113.66
2023-05-02T08:20:25.802Z,98119.91
2023-05-02T08:22:53.268Z,98124.56
2023-05-02T08:25:21.016Z,98117.97
2023-05-02T08:27:48.358Z,98131.84
2023-05-02T08:30:15.938Z,98120.81
2023-05-02T08:32:43.508Z,98126.41
2023-05-02T08:35:11.058Z,98126.91
2023-05-02T08:37:40.039Z,98129.28
2023-05-02T08:40:11.884Z,98139.81
2023-05-02T08:42:44.091Z,98127.88
2023-05-02T08:45:14.881Z,98131.78
2023-05-02T08:47:45.919Z,98134.19
2023-05-02T08:50:16.228Z,98148.66
2023-05-02T08:52:45.364Z,98150.19
2023-05-02T08:55:13.663Z,98150.16
2023-05-02T08:57:43.546Z,98151.09
2023-05-02T09:00:12.017Z,98157.34
2023-05-02T09:02:51.605Z,98161.16
2023-05-02T09:05:23.561Z,98150.00
2023-05-02T09:07:51.997Z,98158.44
2023-05-02T09:10:19.653Z,98155.84
2023-05-02T09:12:47.167Z,98162.66
2023-05-02T09:15:19.892Z,98157.56
2023-05-02T09:17:49.123Z,98168.56
2023-05-02T09:20:17.089Z,98163.34
2023-05-02T09:22:53.574Z,98169.72
2023-05-02T09:25:21.752Z,98176.34
2023-05-02T09:27:54.411Z,98171.16
2023-05-02T09:30:26.605Z,98175.84
2023-05-02T09:32:56.113Z,98185.88
2023-05-02T09:35:23.921Z,98182.81
2023-05-02T09:37:56.368Z,98190.91
2023-05-02T09:40:24.733Z,98183.63
2023-05-02T09:42:52.730Z,98189.59
2023-05-02T09:45:22.393Z,98193.66
2023-05-02T09:47:50.703Z,98191.91
2023-05-02T09:50:35.182Z,98183.91
2023-05-02T09:53:08.696Z,98194.78
2023-05-02T09:55:36.543Z,98200.91
2023-05-02T09:58:04.199Z,98205.28
2023-05-02T10:00:41.569Z,98205.41
2023-05-02T10:03:09.725Z,98212.28
2023-05-02T10:05:39.216Z,98216.22
2023-05-02T10:08:08.544Z,98216.28
2023-05-02T10:10:41.211Z,98221.69
2023-05-02T10:13:09.712Z,98220.34
2023-05-02T10:15:44.137Z,98221.81
2023-05-02T10:18:22.180Z,98213.97
2023-05-02T10:20:58.664Z,98221.31
2023-05-02T10:23:28.346Z,98220.09
2023-05-02T10:25:59.405Z,98226.91
2023-05-02T10:28:28.730Z,98232.34
2023-05-02T10:30:56.341Z,98234.31
2023-05-02T10:33:23.996Z,98245.16
2023-05-02T10:35:51.637Z,98239.34
2023-05-02T10:38:23.317Z,98241.50
2023-05-02T10:40:56.587Z,98242.53
2023-05-02T10:43:26.037Z,98240.81
2023-05-02T10:45:54.851Z,98241.97
2023-05-02T10:48:27.406Z,98246.03
2023-05-02T10:50:56.220Z,98245.63
2023-05-02T10:53:28.836Z,98246.97
2023-05-02T10:56:35.430Z,98244.56
2023-05-02T10:59:32.644Z,98241.56
2023-05-02T11:02:01.712Z,98241.19
2023-05-02T11:05:06.670Z,98248.78
2023-05-02T11:07:36.048Z,98251.63
2023-05-02T11:10:16.193Z,98253.16
2023-05-02T11:12:55.406Z,98247.34
2023-05-02T11:15:29.443Z,98246.63
2023-05-02T11:18:11.998Z,98258.59
2023-05-02T11:20:44.584Z,98256.28
2023-05-02T11:23:26.309Z,98261.00
2023-05-02T11:25:56.362Z,98255.38
2023-05-02T11:28:47.964Z,98262.47
2023-05-02T11:31:27.950Z,98259.06
2023-05-02T11:34:02.520Z,98258.97
2023-05-02T11:36:30.893Z,98246.94
2023-05-02T11:38:58.357Z,98261.97
2023-05-02T11:41:41.156Z,98261.56
2023-05-02T11:44:08.800Z,98253.63
2023-05-02T11:46:41.778Z,98254.78
2023-05-02T11:49:10.576Z,98249.38
2023-05-02T11:51:39.174Z,98250.97
2023-05-02T11:54:08.100Z,98257.53
2023-05-02T11:56:35.936Z,98254.00
2023-05-02T11:59:04.632Z,98254.41
2023-05-02T12:01:32.179Z,98256.94
2023-05-02T12:04:08.016Z,98247.88
2023-05-02T12:06:36.110Z,98251.03
2023-05-02T12:09:14.362Z,98255.56
2023-05-02T12:11:41.862Z,98251.56
2023-05-02T12:14:09.595Z,98262.38
2023-05-02T12:16:37.366Z,98266.84
2023-05-02T12:19:05.780Z,98265.81
2023-05-02T12:21:33.586Z,98269.72
2023-05-02T12:24:02.383Z,98261.38
2023-05-02T12:26:31.931Z,98256.56
2023-05-02T12:28:59.513Z,98255.34
2023-05-02T12:31:31.603Z,98260.59
2023-05-02T12:34:00.430Z,98249.00
2023-05-02T12:36:29.567Z,98254.56
2023-05-02T12:38:59.916Z,98247.50
2023-05-02T12:41:39.173Z,98249.38
2023-05-02T12:44:07.934Z,98253.41
2023-05-02T12:46:36.275Z,98253.44
2023-05-02T12:49:09.879Z,98258.75
2023-05-02T12:51:38.117Z,98265.16
2023-05-02T12:54:05.609Z,98257.69
2023-05-02T12:56:40.538Z,98263.09
2023-05-02T12:59:08.359Z,98251.75
2023-05-02T13:01:36.348Z,98256.75
2023-05-02T13:04:04.380Z,98263.72
2023-05-02T13:06:31.963Z,98265.81
2023-05-02T13:08:59.647Z,98257.69
2023-05-02T13:11:27.083Z,98272.94
2023-05-02T13:13:55.234Z,98273.44
2023-05-02T13:16:22.724Z,98267.72
2023-05-02T13:18:50.436Z,98276.44
2023-05-02T13:21:17.931Z,98269.69
2023-05-02T13:23:47.866Z,98269.50
2023-05-02T13:26:15.285Z,98276.19
2023-05-02T13:28:42.780Z,98273.00
2023-05-02T13:31:10.383Z,98277.31
2023-05-02T13:33:37.871Z,98270.69
2023-05-02T13:36:05.530Z,98274.66
2023-05-02T13:38:34.187Z,98266.59
2023-05-02T13:41:01.653Z,98262.84
2023-05-02T13:43:29.101Z,98269.88
2023-05-02T13:45:56.674Z,98267.91
2023-05-02T13:48:24.146Z,98263.75
2023-05-02T13:50:51.643Z,98272.31
2023-05-02T13:53:19.180Z,98265.03
2023-05-02T13:55:46.773Z,98264.06
2023-05-02T13:58:14.246Z,98264.34
2023-05-02T14:00:42.030Z,98262.88
2023-05-02T14:03:11.467Z,98257.22
2023-05-02T14:05:43.969Z,98261.59
2023-05-02T14:08:12.241Z,98258.09
2023-05-02T14:10:39.729Z,98273.22
2023-05-02T14:13:07.302Z,98273.19
2023-05-02T14:15:34.850Z,98271.88
2023-05-02T14:18:02.345Z,98260.56
2023-05-02T14:20:29.897Z,98267.03
2023-05-02T14:22:57.254Z,98269.19
2023-05-02T14:25:24.707Z,98267.28
2023-05-02T14:27:52.246Z,98271.19
2023-05-02T14:30:19.676Z,98284.47
2023-05-02T14:32:47.216Z,98273.38
2023-05-02T14:35:14.829Z,98278.47
2023-05-02T14:37:45.131Z,98274.84
2023-05-02T14:40:14.142Z,98283.81
2023-05-02T14:42:42.096Z,98283.81
2023-05-02T14:45:10.547Z,98281.91
2023-05-02T14:47:38.096Z,98291.22
2023-05-02T14:50:06.443Z,98284.22
2023-05-02T14:52:34.028Z,98290.34
2023-05-02T14:55:02.582Z,98290.97
2023-05-02T14:57:30.461Z,98290.09
2023-05-02T14:59:57.985Z,98296.53
2023-05-02T15:02:26.192Z,98290.84
2023-05-02T15:04:53.704Z,98298.38
2023-05-02T15:07:21.823Z,98301.28
2023-05-02T15:09:49.314Z,98304.78
2023-05-02T15:12:16.818Z,98306.84
2023-05-02T15:14:44.251Z,98300.00
2023-05-02T15:17:11.789Z,98312.03
2023-05-02T15:19:39.259Z,98307.06
2023-05-02T15:22:06.819Z,98324.97
2023-05-02T15:24:34.268Z,98333.81
2023-05-02T15:27:01.930Z,98345.47
2023-05-02T15:29:29.705Z,98343.03
2023-05-02T15:32:04.349Z,98353.75
2023-05-02T15:34:33.765Z,98361.31
2023-05-02T15:37:01.467Z,98358.97
2023-05-02T15:39:28.977Z,98360.94
2023-05-02T15:41:57.071Z,98367.03
2023-05-02T15:44:26.320Z,98368.41
2023-05-02T15:46:55.266Z,98369.78
2023-05-02T15:49:24.614Z,98378.03
2023-05-02T15:51:52.069Z,98383.66
2023-05-02T15:54:19.478Z,98387.69
2023-05-02T15:56:46.969Z,98387.47
2023-05-02T15:59:14.474Z,98386.53
2023-05-02T16:01:41.912Z,98394.56
2023-05-02T16:04:10.164Z,98397.84
2023-05-02T16:06:38.499Z,98394.09
2023-05-02T16:09:06.773Z,98400.72
2023-05-02T16:11:34.382Z,98400.97
2023-05-02T16:14:01.913Z,98413.63
2023-05-02T16:16:29.446Z,98420.44
2023-05-02T16:18:56.956Z,98418.47
2023-05-02T16:21:24.371Z,98423.94
2023-05-02T16:23:51.869Z,98424.19
2023-05-02T16:26:20.859Z,98428.03
2023-05-02T16:28:48.375Z,98427.44
2023-05-02T16:31:16.207Z,98428.97
2023-05-02T16:33:43.771Z,98430.53
2023-05-02T16:36:11.281Z,98425.88
2023-05-02T16:38:38.752Z,98432.75
2023-05-02T16:41:07.298Z,98435.28
2023-05-02T16:43:35.059Z,98436.41
2023-05-02T16:46:04.604Z,98434.38
2023-05-02T16:48:32.863Z,98438.31
2023-05-02T16:51:02.523Z,98453.00
2023-05-02T16:53:31.572Z,98440.78
2023-05-02T16:55:59.948Z,98448.34
2023-05-02T16:58:30.424Z,98449.25
2023-05-02T17:01:00.222Z,98457.78
2023-05-02T17:03:28.972Z,98461.06
2023-05-02T17:06:01.333Z,98465.09
2023-05-02T17:08:29.355Z,98466.34
2023-05-02T17:10:57.066Z,98468.72
2023-05-02T17:13:24.643Z,98478.63
2023-05-02T17:15:53.753Z,98472.75
2023-05-02T17:18:22.101Z,98478.09
2023-05-02T17:20:50.161Z,98486.13
2023-05-02T17:23:17.735Z,98486.06
2023-05-02T17:25:45.416Z,98486.88
2023-05-02T17:28:12.941Z,98490.31
2023-05-02T17:30:40.388Z,98493.56
2023-05-02T17:33:08.377Z,98496.22
2023-05-02T17:35:35.835Z,98506.78
2023-05-02T17:38:03.407Z,98499.03
2023-05-02T17:40:30.977Z,98502.75
2023-05-02T17:42:59.461Z,98513.06
2023-05-02T17:45:29.179Z,98511.44
2023-05-02T17:47:57.258Z,98511.66
2023-05-02T17:50:24.838Z,98517.81
2023-05-02T17:52:52.443Z,98527.28
2023-05-02T17:55:20.052Z,98523.00
2023-05-02T17:57:47.625Z,98535.19
2023-05-02T18:00:15.455Z,98538.69
2023-05-02T18:02:44.125Z,98550.22
2023-05-02T18:05:12.116Z,98557.44
2023-05-02T18:07:39.589Z,98557.06
2023-05-02T18:10:07.719Z,98560.75
2023-05-02T18:12:35.915Z,98561.41
2023-05-02T18:15:05.313Z,98562.44
2023-05-02T18:17:33.353Z,98569.66
2023-05-02T18:20:01.155Z,98572.75
2023-05-02T18:22:28.856Z,98564.94
2023-05-02T18:24:56.321Z,98575.22
2023-05-02T18:27:23.775Z,98583.00
2023-05-02T18:29:51.554Z,98573.97
2023-05-02T18:32:18.992Z,98586.75
2023-05-02T18:34:46.571Z,98583.31
2023-05-02T18:37:14.196Z,98582.28
2023-05-02T18:39:41.618Z,98584.72
2023-05-02T18:42:10.565Z,98590.72
2023-05-02T18:44:38.160Z,98585.56
2023-05-02T18:47:05.673Z,98584.84
2023-05-02T18:49:33.174Z,98589.78
2023-05-02T18:52:00.621Z,98596.97
2023-05-02T18:54:28.860Z,98605.22
2023-05-02T18:56:56.544Z,98593.13
2023-05-02T18:59:24.001Z,98602.34
2023-05-02T19:01:52.112Z,98610.59
2023-05-02T19:04:20.327Z,98609.16
2023-05-02T19:06:48.076Z,98611.81
2023-05-02T19:09:15.950Z,98616.13
2023-05-02T19:11:43.344Z,98607.09
2023-05-02T19:14:11.992Z,98619.47
2023-05-02T19:16:40.661Z,98619.84
2023-05-02T19:19:08.601Z,98617.81
2023-05-02T19:21:36.245Z,98618.25
2023-05-02T19:24:04.070Z,98624.00
2023-05-02T19:26:31.929Z,98625.22
2023-05-02T19:28:59.435Z,98624.81
2023-05-02T19:31:27.135Z,98625.22
2023-05-02T19:33:55.071Z,98636.47
2023-05-02T19:36:24.348Z,98628.69
2023-05-02T19:38:54.114Z,98632.81
2023-05-02T19:41:24.944Z,98634.84
2023-05-02T19:43:53.121Z,98633.00
2023-05-02T19:46:20.843Z,98635.28
2023-05-02T19:48:48.586Z,98634.66
2023-05-02T19:51:16.048Z,98629.94
2023-05-02T19:53:43.544Z,98627.31
2023-05-02T19:56:11.126Z,98631.41
2023-05-02T19:58:38.572Z,98630.38
2023-05-02T20:01:06.012Z,98624.25
2023-05-02T20:03:34.894Z,98632.22
2023-05-02T20:06:02.743Z,98638.97
2023-05-02T20:08:31.630Z,98645.31
2023-05-02T20:10:59.044Z,98650.84
2023-05-02T20:13:27.323Z,98655.75
2023-05-02T20:15:54.906Z,98656.94
2023-05-02T20:18:22.413Z,98662.47
2023-05-02T20:20:49.942Z,98663.25
2023-05-02T20:23:17.422Z,98666.47
2023-05-02T20:25:45.593Z,98673.88
2023-05-02T20:28:13.538Z,98670.41
2023-05-02T20:30:42.127Z,98684.13
2023-05-02T20:33:15.500Z,98683.47
2023-05-02T20:35:44.468Z,98683.66
2023-05-02T20:38:12.183Z,98682.25
2023-05-02T20:40:40.874Z,98687.75
2023-05-02T20:43:08.945Z,98684.50
2023-05-02T20:45:36.433Z,98687.78
2023-05-02T20:48:04.081Z,98683.25
2023-05-02T20:50:31.632Z,98688.81
2023-05-02T20:52:59.542Z,98696.00
2023-05-02T20:55:27.708Z,98696.00
2023-05-02T20:57:55.274Z,98690.25
2023-05-02T21:00:22.868Z,98696.81
2023-05-02T21:02:50.782Z,98698.44
2023-05-02T21:05:18.413Z,98693.97
2023-05-02T21:07:45.938Z,98704.16
2023-05-02T21:10:13.699Z,98702.53
2023-05-02T21:12:41.276Z,98705.63
2023-05-02T21:15:08.890Z,98710.34
2023-05-02T21:17:39.371Z,98706.03
2023-05-02T21:20:07.658Z,98708.91
2023-05-02T21:22:35.116Z,98707.91
2023-05-02T21:25:02.586Z,98716.28
2023-05-02T21:27:30.332Z,98713.25
2023-05-02T21:29:57.767Z,98718.16
2023-05-02T21:32:26.028Z,98712.44
2023-05-02T21:34:53.543Z,98719.38
2023-05-02T21:37:21.013Z,98716.09
2023-05-02T21:39:48.496Z,98714.06
2023-05-02T21:42:15.897Z,98720.63
2023-05-02T21:44:43.313Z,98722.22
2023-05-02T21:47:10.822Z,98724.88
2023-05-02T21:49:38.329Z,98731.66
2023-05-02T21:52:05.742Z,98728.19
2023-05-02T21:54:33.396Z,98723.28
2023-05-02T21:57:00.838Z,98723.91
2023-05-02T21:59:28.389Z,98720.81
2023-05-02T22:01:55.903Z,98723.25
2023-05-02T22:04:24.965Z,98725.28
2023-05-02T22:06:53.118Z,98724.66
2023-05-02T22:09:21.088Z,98724.66
2023-05-02T22:11:48.516Z,98725.50
2023-05-02T22:14:15.998Z,98728.75
2023-05-02T22:16:45.687Z,98730.38
2023-05-02T22:19:14.742Z,98726.06
2023-05-02T22:21:42.266Z,98729.53
2023-05-02T22:24:43.928Z,98733.81
2023-05-02T22:27:11.398Z,98728.91
2023-05-02T22:29:38.835Z,98728.91
2023-05-02T22:32:06.397Z,98732.19
2023-05-02T22:34:33.957Z,98736.47
2023-05-02T22:37:01.496Z,98728.91
2023-05-02T22:39:29.099Z,98736.28
2023-05-02T22:41:57.318Z,98734.22
2023-05-02T22:44:24.770Z,98742.59
2023-05-02T22:46:52.246Z,98741.19
2023-05-02T22:49:19.888Z,98743.00
2023-05-02T22:51:48.180Z,98737.47
2023-05-02T22:54:16.886Z,98742.13
2023-05-02T22:56:44.428Z,98742.97
2023-05-02T22:59:11.866Z,98738.69
2023-05-02T23:01:39.352Z,98736.47
2023-05-02T23:04:07.204Z,98738.91
2023-05-02T23:06:34.722Z,98732.28
2023-05-02T23:09:02.209Z,98735.56
2023-05-02T23:11:29.877Z,98737.19
2023-05-02T23:13:57.335Z,98739.63
2023-05-02T23:16:25.321Z,98740.66
2023-05-02T23:18:53.098Z,98739.44
2023-05-02T23:21:20.568Z,98743.13
2023-05-02T23:23:48.097Z,98738.63
2023-05-02T23:26:15.532Z,98741.06
2023-05-02T23:28:43.006Z,98741.44
2023-05-02T23:31:10.599Z,98748.41
2023-05-02T23:33:38.372Z,98745.94
2023-05-02T23:36:07.358Z,98747.41
2023-05-02T23:38:36.241Z,98751.50
2023-05-02T23:41:03.963Z,98744.53
2023-05-02T23:43:31.502Z,98747.41
2023-05-02T23:45:59.046Z,98750.44
2023-05-02T23:48:26.488Z,98750.84
2023-05-02T23:50:54.308Z,98753.47
2023-05-02T23:53:21.797Z,98753.47
2023-05-02T23:55:49.210Z,98760.38
2023-05-02T23:58:16.753Z,98759.09
